sensor_id;sensor_type;location;lat;lon;timestamp;P1;durP1;ratioP1;P2;durP2;ratioP2
79460;SDS011;68929;42.666;23.324;2023-07-08T00:00:19;22.80;;;20.55;;
79460;SDS011;68929;42.666;23.324;2023-07-08T00:02:46;20.48;;;18.48;;
79460;SDS011;68929;42.666;23.324;2023-07-08T00:05:12;21.70;;;19.40;;
79460;SDS011;68929;42.666;23.324;2023-07-08T00:07:39;23.42;;;20.88;;
79460;SDS011;68929;42.666;23.324;2023-07-08T00:12:42;22.90;;;20.60;;
79460;SDS011;68929;42.666;23.324;2023-07-08T00:15:09;22.88;;;20.73;;
79460;SDS011;68929;42.666;23.324;2023-07-08T00:17:35;24.10;;;21.73;;
79460;SDS011;68929;42.666;23.324;2023-07-08T00:20:01;21.05;;;19.13;;
79460;SDS011;68929;42.666;23.324;2023-07-08T00:22:54;24.25;;;21.85;;
79460;SDS011;68929;42.666;23.324;2023-07-08T00:25:19;28.35;;;20.80;;
79460;SDS011;68929;42.666;23.324;2023-07-08T00:27:45;25.10;;;22.58;;
79460;SDS011;68929;42.666;23.324;2023-07-08T00:32:45;21.58;;;19.35;;
79460;SDS011;68929;42.666;23.324;2023-07-08T00:35:11;24.00;;;21.70;;
79460;SDS011;68929;42.666;23.324;2023-07-08T00:37:36;23.45;;;21.25;;
79460;SDS011;68929;42.666;23.324;2023-07-08T00:40:08;25.05;;;21.88;;
79460;SDS011;68929;42.666;23.324;2023-07-08T00:42:39;23.02;;;20.65;;
79460;SDS011;68929;42.666;23.324;2023-07-08T00:45:18;24.10;;;21.77;;
79460;SDS011;68929;42.666;23.324;2023-07-08T00:47:54;22.80;;;20.35;;
79460;SDS011;68929;42.666;23.324;2023-07-08T00:50:21;22.15;;;19.85;;
79460;SDS011;68929;42.666;23.324;2023-07-08T00:52:47;23.42;;;21.17;;
79460;SDS011;68929;42.666;23.324;2023-07-08T00:55:12;26.13;;;20.95;;
79460;SDS011;68929;42.666;23.324;2023-07-08T00:57:39;23.85;;;21.35;;
79460;SDS011;68929;42.666;23.324;2023-07-08T01:00:12;23.60;;;21.30;;
79460;SDS011;68929;42.666;23.324;2023-07-08T01:02:45;22.35;;;20.05;;
79460;SDS011;68929;42.666;23.324;2023-07-08T01:05:19;20.65;;;18.48;;
79460;SDS011;68929;42.666;23.324;2023-07-08T01:07:50;23.98;;;21.33;;
79460;SDS011;68929;42.666;23.324;2023-07-08T01:10:20;25.38;;;20.60;;
79460;SDS011;68929;42.666;23.324;2023-07-08T01:12:52;22.08;;;19.88;;
79460;SDS011;68929;42.666;23.324;2023-07-08T01:15:21;20.92;;;18.90;;
79460;SDS011;68929;42.666;23.324;2023-07-08T01:17:51;20.65;;;18.45;;
79460;SDS011;68929;42.666;23.324;2023-07-08T01:20:18;19.67;;;17.67;;
79460;SDS011;68929;42.666;23.324;2023-07-08T01:22:44;21.63;;;19.05;;
79460;SDS011;68929;42.666;23.324;2023-07-08T01:25:10;20.60;;;18.42;;
79460;SDS011;68929;42.666;23.324;2023-07-08T01:27:39;21.00;;;18.88;;
79460;SDS011;68929;42.666;23.324;2023-07-08T01:30:10;21.30;;;19.02;;
79460;SDS011;68929;42.666;23.324;2023-07-08T01:32:37;22.00;;;19.92;;
79460;SDS011;68929;42.666;23.324;2023-07-08T01:35:08;21.92;;;19.85;;
79460;SDS011;68929;42.666;23.324;2023-07-08T01:37:38;21.63;;;19.45;;
79460;SDS011;68929;42.666;23.324;2023-07-08T01:40:16;20.83;;;18.65;;
79460;SDS011;68929;42.666;23.324;2023-07-08T01:42:44;22.35;;;19.50;;
79460;SDS011;68929;42.666;23.324;2023-07-08T01:45:14;20.95;;;18.75;;
79460;SDS011;68929;42.666;23.324;2023-07-08T01:47:42;23.95;;;20.48;;
79460;SDS011;68929;42.666;23.324;2023-07-08T01:50:11;23.05;;;20.70;;
79460;SDS011;68929;42.666;23.324;2023-07-08T01:52:37;21.85;;;19.73;;
79460;SDS011;68929;42.666;23.324;2023-07-08T01:55:03;22.20;;;19.83;;
79460;SDS011;68929;42.666;23.324;2023-07-08T01:57:29;22.60;;;20.30;;
79460;SDS011;68929;42.666;23.324;2023-07-08T01:59:54;21.52;;;19.40;;
79460;SDS011;68929;42.666;23.324;2023-07-08T02:02:20;20.73;;;18.58;;
79460;SDS011;68929;42.666;23.324;2023-07-08T02:04:45;20.08;;;18.20;;
79460;SDS011;68929;42.666;23.324;2023-07-08T02:07:10;20.02;;;18.05;;
79460;SDS011;68929;42.666;23.324;2023-07-08T02:09:36;24.42;;;18.92;;
79460;SDS011;68929;42.666;23.324;2023-07-08T02:12:01;18.88;;;17.17;;
79460;SDS011;68929;42.666;23.324;2023-07-08T02:14:26;20.52;;;18.15;;
79460;SDS011;68929;42.666;23.324;2023-07-08T02:16:52;22.83;;;18.42;;
79460;SDS011;68929;42.666;23.324;2023-07-08T02:19:17;21.38;;;18.95;;
79460;SDS011;68929;42.666;23.324;2023-07-08T02:21:44;21.92;;;17.75;;
79460;SDS011;68929;42.666;23.324;2023-07-08T02:24:09;19.27;;;17.40;;
79460;SDS011;68929;42.666;23.324;2023-07-08T02:26:35;20.45;;;18.30;;
79460;SDS011;68929;42.666;23.324;2023-07-08T02:29:00;19.13;;;17.25;;
79460;SDS011;68929;42.666;23.324;2023-07-08T02:31:26;20.08;;;17.83;;
79460;SDS011;68929;42.666;23.324;2023-07-08T02:33:52;22.13;;;18.38;;
79460;SDS011;68929;42.666;23.324;2023-07-08T02:36:19;21.00;;;17.40;;
79460;SDS011;68929;42.666;23.324;2023-07-08T02:38:44;19.65;;;17.92;;
79460;SDS011;68929;42.666;23.324;2023-07-08T02:41:10;21.65;;;18.50;;
79460;SDS011;68929;42.666;23.324;2023-07-08T02:43:36;18.40;;;16.52;;
79460;SDS011;68929;42.666;23.324;2023-07-08T02:46:02;20.58;;;18.40;;
79460;SDS011;68929;42.666;23.324;2023-07-08T02:48:28;18.27;;;16.58;;
79460;SDS011;68929;42.666;23.324;2023-07-08T02:50:58;20.48;;;18.48;;
79460;SDS011;68929;42.666;23.324;2023-07-08T02:53:26;21.33;;;19.23;;
79460;SDS011;68929;42.666;23.324;2023-07-08T02:55:52;21.33;;;19.23;;
79460;SDS011;68929;42.666;23.324;2023-07-08T02:58:17;20.73;;;18.70;;
79460;SDS011;68929;42.666;23.324;2023-07-08T03:00:42;24.67;;;18.52;;
79460;SDS011;68929;42.666;23.324;2023-07-08T03:03:08;20.10;;;18.10;;
79460;SDS011;68929;42.666;23.324;2023-07-08T03:05:33;21.45;;;19.35;;
79460;SDS011;68929;42.666;23.324;2023-07-08T03:07:59;20.38;;;18.33;;
79460;SDS011;68929;42.666;23.324;2023-07-08T03:10:24;21.60;;;18.55;;
79460;SDS011;68929;42.666;23.324;2023-07-08T03:12:49;19.65;;;17.65;;
79460;SDS011;68929;42.666;23.324;2023-07-08T03:15:15;18.83;;;16.85;;
79460;SDS011;68929;42.666;23.324;2023-07-08T03:17:40;21.70;;;18.45;;
79460;SDS011;68929;42.666;23.324;2023-07-08T03:20:07;20.10;;;16.73;;
79460;SDS011;68929;42.666;23.324;2023-07-08T03:22:33;19.17;;;17.17;;
79460;SDS011;68929;42.666;23.324;2023-07-08T03:24:58;18.88;;;17.08;;
79460;SDS011;68929;42.666;23.324;2023-07-08T03:27:24;17.92;;;15.27;;
79460;SDS011;68929;42.666;23.324;2023-07-08T03:29:49;17.45;;;15.73;;
79460;SDS011;68929;42.666;23.324;2023-07-08T03:32:14;16.08;;;14.55;;
79460;SDS011;68929;42.666;23.324;2023-07-08T03:34:40;16.80;;;15.13;;
79460;SDS011;68929;42.666;23.324;2023-07-08T03:37:05;15.95;;;14.32;;
79460;SDS011;68929;42.666;23.324;2023-07-08T03:39:31;15.32;;;13.43;;
79460;SDS011;68929;42.666;23.324;2023-07-08T03:41:59;18.48;;;14.60;;
79460;SDS011;68929;42.666;23.324;2023-07-08T03:44:24;16.55;;;14.63;;
79460;SDS011;68929;42.666;23.324;2023-07-08T03:46:50;15.50;;;13.32;;
79460;SDS011;68929;42.666;23.324;2023-07-08T03:49:18;14.80;;;13.30;;
79460;SDS011;68929;42.666;23.324;2023-07-08T03:51:47;15.15;;;13.57;;
79460;SDS011;68929;42.666;23.324;2023-07-08T03:54:13;17.65;;;13.88;;
79460;SDS011;68929;42.666;23.324;2023-07-08T03:56:39;13.65;;;12.25;;
79460;SDS011;68929;42.666;23.324;2023-07-08T03:59:05;16.70;;;13.68;;
79460;SDS011;68929;42.666;23.324;2023-07-08T04:01:30;14.77;;;13.35;;
79460;SDS011;68929;42.666;23.324;2023-07-08T04:03:57;14.27;;;13.07;;
79460;SDS011;68929;42.666;23.324;2023-07-08T04:06:23;14.35;;;11.70;;
79460;SDS011;68929;42.666;23.324;2023-07-08T04:08:49;13.95;;;12.45;;
79460;SDS011;68929;42.666;23.324;2023-07-08T04:11:16;12.50;;;11.35;;
79460;SDS011;68929;42.666;23.324;2023-07-08T04:13:43;13.70;;;12.38;;
79460;SDS011;68929;42.666;23.324;2023-07-08T04:16:13;16.52;;;14.85;;
79460;SDS011;68929;42.666;23.324;2023-07-08T04:18:42;15.40;;;14.00;;
79460;SDS011;68929;42.666;23.324;2023-07-08T04:21:07;15.75;;;12.75;;
79460;SDS011;68929;42.666;23.324;2023-07-08T04:23:32;14.07;;;12.55;;
79460;SDS011;68929;42.666;23.324;2023-07-08T04:25:58;14.85;;;12.07;;
79460;SDS011;68929;42.666;23.324;2023-07-08T04:28:24;12.65;;;11.45;;
79460;SDS011;68929;42.666;23.324;2023-07-08T04:30:49;11.52;;;10.50;;
79460;SDS011;68929;42.666;23.324;2023-07-08T04:33:15;11.70;;;10.55;;
79460;SDS011;68929;42.666;23.324;2023-07-08T04:35:41;13.18;;;11.55;;
79460;SDS011;68929;42.666;23.324;2023-07-08T04:38:21;12.15;;;11.00;;
79460;SDS011;68929;42.666;23.324;2023-07-08T04:40:49;13.30;;;12.00;;
79460;SDS011;68929;42.666;23.324;2023-07-08T04:43:15;14.90;;;11.52;;
79460;SDS011;68929;42.666;23.324;2023-07-08T04:45:43;13.05;;;11.70;;
79460;SDS011;68929;42.666;23.324;2023-07-08T04:48:13;12.88;;;11.65;;
79460;SDS011;68929;42.666;23.324;2023-07-08T04:50:43;11.68;;;10.48;;
79460;SDS011;68929;42.666;23.324;2023-07-08T04:53:09;12.50;;;11.40;;
79460;SDS011;68929;42.666;23.324;2023-07-08T04:55:36;11.95;;;10.70;;
79460;SDS011;68929;42.666;23.324;2023-07-08T04:58:04;12.52;;;11.27;;
79460;SDS011;68929;42.666;23.324;2023-07-08T05:00:30;14.25;;;11.38;;
79460;SDS011;68929;42.666;23.324;2023-07-08T05:02:56;12.57;;;11.32;;
79460;SDS011;68929;42.666;23.324;2023-07-08T05:05:21;16.40;;;12.05;;
79460;SDS011;68929;42.666;23.324;2023-07-08T05:07:46;13.00;;;11.70;;
79460;SDS011;68929;42.666;23.324;2023-07-08T05:10:14;16.80;;;11.63;;
79460;SDS011;68929;42.666;23.324;2023-07-08T05:12:40;13.07;;;11.15;;
79460;SDS011;68929;42.666;23.324;2023-07-08T05:15:05;12.30;;;11.20;;
79460;SDS011;68929;42.666;23.324;2023-07-08T05:17:31;11.32;;;10.13;;
79460;SDS011;68929;42.666;23.324;2023-07-08T05:19:56;12.25;;;11.15;;
79460;SDS011;68929;42.666;23.324;2023-07-08T05:22:25;12.60;;;10.07;;
79460;SDS011;68929;42.666;23.324;2023-07-08T05:24:52;11.98;;;10.77;;
79460;SDS011;68929;42.666;23.324;2023-07-08T05:27:20;11.20;;;10.00;;
79460;SDS011;68929;42.666;23.324;2023-07-08T05:29:47;11.82;;;9.43;;
79460;SDS011;68929;42.666;23.324;2023-07-08T05:32:12;10.80;;;9.80;;
79460;SDS011;68929;42.666;23.324;2023-07-08T05:34:38;10.90;;;9.15;;
79460;SDS011;68929;42.666;23.324;2023-07-08T05:37:03;10.88;;;9.63;;
79460;SDS011;68929;42.666;23.324;2023-07-08T05:39:29;9.63;;;8.80;;
79460;SDS011;68929;42.666;23.324;2023-07-08T05:41:56;12.32;;;10.30;;
79460;SDS011;68929;42.666;23.324;2023-07-08T05:44:21;9.90;;;8.90;;
79460;SDS011;68929;42.666;23.324;2023-07-08T05:46:47;10.13;;;9.20;;
79460;SDS011;68929;42.666;23.324;2023-07-08T05:49:12;14.00;;;9.85;;
79460;SDS011;68929;42.666;23.324;2023-07-08T05:51:38;12.82;;;9.80;;
79460;SDS011;68929;42.666;23.324;2023-07-08T05:54:03;11.00;;;9.23;;
79460;SDS011;68929;42.666;23.324;2023-07-08T05:56:28;9.73;;;8.70;;
79460;SDS011;68929;42.666;23.324;2023-07-08T05:58:56;9.55;;;8.55;;
79460;SDS011;68929;42.666;23.324;2023-07-08T06:01:21;10.55;;;9.10;;
79460;SDS011;68929;42.666;23.324;2023-07-08T06:03:47;10.57;;;9.27;;
79460;SDS011;68929;42.666;23.324;2023-07-08T06:06:12;11.82;;;9.70;;
79460;SDS011;68929;42.666;23.324;2023-07-08T06:08:38;12.68;;;9.50;;
79460;SDS011;68929;42.666;23.324;2023-07-08T06:11:04;10.75;;;9.07;;
79460;SDS011;68929;42.666;23.324;2023-07-08T06:13:29;12.35;;;10.77;;
79460;SDS011;68929;42.666;23.324;2023-07-08T06:15:54;12.15;;;10.77;;
79460;SDS011;68929;42.666;23.324;2023-07-08T06:18:20;12.57;;;11.27;;
79460;SDS011;68929;42.666;23.324;2023-07-08T06:20:55;13.10;;;11.40;;
79460;SDS011;68929;42.666;23.324;2023-07-08T06:23:22;11.55;;;10.10;;
79460;SDS011;68929;42.666;23.324;2023-07-08T06:25:48;14.05;;;11.52;;
79460;SDS011;68929;42.666;23.324;2023-07-08T06:28:13;14.07;;;11.25;;
79460;SDS011;68929;42.666;23.324;2023-07-08T06:30:39;11.82;;;10.73;;
79460;SDS011;68929;42.666;23.324;2023-07-08T06:33:04;11.60;;;10.13;;
79460;SDS011;68929;42.666;23.324;2023-07-08T06:35:30;12.85;;;11.07;;
79460;SDS011;68929;42.666;23.324;2023-07-08T06:37:55;11.90;;;8.93;;
79460;SDS011;68929;42.666;23.324;2023-07-08T06:40:26;13.20;;;10.20;;
79460;SDS011;68929;42.666;23.324;2023-07-08T06:42:51;13.52;;;9.95;;
79460;SDS011;68929;42.666;23.324;2023-07-08T06:45:17;12.52;;;9.30;;
79460;SDS011;68929;42.666;23.324;2023-07-08T06:47:42;10.98;;;9.75;;
79460;SDS011;68929;42.666;23.324;2023-07-08T06:50:11;11.48;;;9.25;;
79460;SDS011;68929;42.666;23.324;2023-07-08T06:52:37;11.07;;;9.32;;
79460;SDS011;68929;42.666;23.324;2023-07-08T06:55:04;9.15;;;8.30;;
79460;SDS011;68929;42.666;23.324;2023-07-08T06:57:31;9.68;;;8.75;;
79460;SDS011;68929;42.666;23.324;2023-07-08T06:59:57;13.48;;;9.18;;
79460;SDS011;68929;42.666;23.324;2023-07-08T07:02:23;12.05;;;8.95;;
79460;SDS011;68929;42.666;23.324;2023-07-08T07:04:51;11.35;;;9.27;;
79460;SDS011;68929;42.666;23.324;2023-07-08T07:07:17;10.00;;;9.07;;
79460;SDS011;68929;42.666;23.324;2023-07-08T07:09:42;9.93;;;8.93;;
79460;SDS011;68929;42.666;23.324;2023-07-08T07:12:07;11.18;;;8.35;;
79460;SDS011;68929;42.666;23.324;2023-07-08T07:14:33;9.88;;;8.52;;
79460;SDS011;68929;42.666;23.324;2023-07-08T07:16:59;13.13;;;8.85;;
79460;SDS011;68929;42.666;23.324;2023-07-08T07:19:24;12.27;;;8.90;;
79460;SDS011;68929;42.666;23.324;2023-07-08T07:21:50;11.02;;;8.88;;
79460;SDS011;68929;42.666;23.324;2023-07-08T07:24:15;11.82;;;9.55;;
79460;SDS011;68929;42.666;23.324;2023-07-08T07:26:40;9.90;;;8.88;;
79460;SDS011;68929;42.666;23.324;2023-07-08T07:29:06;9.30;;;8.15;;
79460;SDS011;68929;42.666;23.324;2023-07-08T07:31:31;9.75;;;8.20;;
79460;SDS011;68929;42.666;23.324;2023-07-08T07:33:59;11.45;;;9.10;;
79460;SDS011;68929;42.666;23.324;2023-07-08T07:36:25;11.32;;;9.02;;
79460;SDS011;68929;42.666;23.324;2023-07-08T07:38:51;9.98;;;9.07;;
79460;SDS011;68929;42.666;23.324;2023-07-08T07:41:16;9.02;;;8.23;;
79460;SDS011;68929;42.666;23.324;2023-07-08T07:43:41;13.55;;;9.52;;
79460;SDS011;68929;42.666;23.324;2023-07-08T07:46:07;10.40;;;8.73;;
79460;SDS011;68929;42.666;23.324;2023-07-08T07:48:33;8.95;;;8.13;;
79460;SDS011;68929;42.666;23.324;2023-07-08T07:50:58;14.10;;;8.77;;
79460;SDS011;68929;42.666;23.324;2023-07-08T07:53:24;9.98;;;8.98;;
79460;SDS011;68929;42.666;23.324;2023-07-08T07:55:55;9.95;;;9.00;;
79460;SDS011;68929;42.666;23.324;2023-07-08T07:58:21;9.82;;;8.25;;
79460;SDS011;68929;42.666;23.324;2023-07-08T08:00:47;11.75;;;8.43;;
79460;SDS011;68929;42.666;23.324;2023-07-08T08:03:12;10.32;;;8.13;;
79460;SDS011;68929;42.666;23.324;2023-07-08T08:05:37;9.05;;;7.18;;
79460;SDS011;68929;42.666;23.324;2023-07-08T08:08:03;9.98;;;8.02;;
79460;SDS011;68929;42.666;23.324;2023-07-08T08:10:28;10.68;;;9.23;;
79460;SDS011;68929;42.666;23.324;2023-07-08T08:12:54;14.65;;;8.75;;
79460;SDS011;68929;42.666;23.324;2023-07-08T08:15:20;9.95;;;8.95;;
79460;SDS011;68929;42.666;23.324;2023-07-08T08:17:46;8.88;;;8.00;;
79460;SDS011;68929;42.666;23.324;2023-07-08T08:20:14;9.38;;;8.55;;
79460;SDS011;68929;42.666;23.324;2023-07-08T08:22:39;9.88;;;8.23;;
79460;SDS011;68929;42.666;23.324;2023-07-08T08:25:05;9.10;;;8.30;;
79460;SDS011;68929;42.666;23.324;2023-07-08T08:27:31;9.30;;;8.40;;
79460;SDS011;68929;42.666;23.324;2023-07-08T08:29:56;9.18;;;8.30;;
79460;SDS011;68929;42.666;23.324;2023-07-08T08:32:22;9.55;;;8.65;;
79460;SDS011;68929;42.666;23.324;2023-07-08T08:34:47;9.73;;;8.73;;
79460;SDS011;68929;42.666;23.324;2023-07-08T08:37:12;12.00;;;8.95;;
79460;SDS011;68929;42.666;23.324;2023-07-08T08:39:42;12.27;;;8.75;;
79460;SDS011;68929;42.666;23.324;2023-07-08T08:42:16;9.27;;;8.48;;
79460;SDS011;68929;42.666;23.324;2023-07-08T08:44:51;8.90;;;8.02;;
79460;SDS011;68929;42.666;23.324;2023-07-08T08:47:37;9.38;;;7.70;;
79460;SDS011;68929;42.666;23.324;2023-07-08T08:50:26;9.02;;;8.07;;
79460;SDS011;68929;42.666;23.324;2023-07-08T08:53:05;9.00;;;7.70;;
79460;SDS011;68929;42.666;23.324;2023-07-08T09:09:15;11.32;;;7.78;;
79460;SDS011;68929;42.666;23.324;2023-07-08T09:14:25;8.77;;;7.45;;
79460;SDS011;68929;42.666;23.324;2023-07-08T09:19:32;9.02;;;8.13;;
79460;SDS011;68929;42.666;23.324;2023-07-08T09:22:12;8.85;;;7.78;;
79460;SDS011;68929;42.666;23.324;2023-07-08T09:25:49;8.82;;;7.85;;
79460;SDS011;68929;42.666;23.324;2023-07-08T09:27:46;8.52;;;7.68;;
79460;SDS011;68929;42.666;23.324;2023-07-08T09:30:15;11.07;;;8.25;;
79460;SDS011;68929;42.666;23.324;2023-07-08T09:32:48;8.60;;;7.32;;
79460;SDS011;68929;42.666;23.324;2023-07-08T09:37:47;8.10;;;7.25;;
79460;SDS011;68929;42.666;23.324;2023-07-08T09:42:50;9.85;;;7.95;;
79460;SDS011;68929;42.666;23.324;2023-07-08T09:45:51;8.95;;;7.70;;
79460;SDS011;68929;42.666;23.324;2023-07-08T09:48:30;15.38;;;7.65;;
79460;SDS011;68929;42.666;23.324;2023-07-08T09:51:06;8.15;;;7.35;;
79460;SDS011;68929;42.666;23.324;2023-07-08T09:53:38;8.55;;;7.45;;
79460;SDS011;68929;42.666;23.324;2023-07-08T09:56:31;8.05;;;6.50;;
79460;SDS011;68929;42.666;23.324;2023-07-08T09:59:19;8.73;;;7.07;;
79460;SDS011;68929;42.666;23.324;2023-07-08T10:01:48;8.75;;;7.25;;
79460;SDS011;68929;42.666;23.324;2023-07-08T10:04:19;7.22;;;6.50;;
79460;SDS011;68929;42.666;23.324;2023-07-08T10:07:19;6.93;;;6.22;;
79460;SDS011;68929;42.666;23.324;2023-07-08T10:09:46;7.18;;;6.50;;
79460;SDS011;68929;42.666;23.324;2023-07-08T10:12:19;9.07;;;6.40;;
79460;SDS011;68929;42.666;23.324;2023-07-08T10:14:50;6.85;;;5.85;;
79460;SDS011;68929;42.666;23.324;2023-07-08T10:17:55;6.93;;;6.30;;
79460;SDS011;68929;42.666;23.324;2023-07-08T10:20:21;7.70;;;5.90;;
79460;SDS011;68929;42.666;23.324;2023-07-08T10:22:57;7.70;;;6.90;;
79460;SDS011;68929;42.666;23.324;2023-07-08T10:25:35;6.63;;;6.00;;
79460;SDS011;68929;42.666;23.324;2023-07-08T10:28:35;7.88;;;5.78;;
79460;SDS011;68929;42.666;23.324;2023-07-08T10:34:04;6.88;;;6.05;;
79460;SDS011;68929;42.666;23.324;2023-07-08T10:36:42;7.05;;;5.45;;
79460;SDS011;68929;42.666;23.324;2023-07-08T10:46:04;5.60;;;5.10;;
79460;SDS011;68929;42.666;23.324;2023-07-08T10:51:26;6.05;;;5.45;;
79460;SDS011;68929;42.666;23.324;2023-07-08T11:08:14;5.53;;;5.00;;
79460;SDS011;68929;42.666;23.324;2023-07-08T11:11:16;6.13;;;5.63;;
79460;SDS011;68929;42.666;23.324;2023-07-08T11:14:01;5.82;;;5.25;;
79460;SDS011;68929;42.666;23.324;2023-07-08T11:16:41;5.78;;;5.18;;
79460;SDS011;68929;42.666;23.324;2023-07-08T11:19:25;7.70;;;5.25;;
79460;SDS011;68929;42.666;23.324;2023-07-08T11:22:08;5.68;;;4.85;;
79460;SDS011;68929;42.666;23.324;2023-07-08T11:24:45;5.60;;;5.10;;
79460;SDS011;68929;42.666;23.324;2023-07-08T11:27:23;5.80;;;5.20;;
79460;SDS011;68929;42.666;23.324;2023-07-08T11:30:14;5.55;;;5.05;;
79460;SDS011;68929;42.666;23.324;2023-07-08T11:32:45;6.47;;;5.38;;
79460;SDS011;68929;42.666;23.324;2023-07-08T11:35:17;5.63;;;5.13;;
79460;SDS011;68929;42.666;23.324;2023-07-08T11:37:46;6.10;;;4.97;;
79460;SDS011;68929;42.666;23.324;2023-07-08T11:40:23;5.97;;;5.20;;
79460;SDS011;68929;42.666;23.324;2023-07-08T11:43:16;6.18;;;4.90;;
79460;SDS011;68929;42.666;23.324;2023-07-08T11:45:42;5.68;;;5.22;;
79460;SDS011;68929;42.666;23.324;2023-07-08T11:48:13;5.20;;;4.80;;
79460;SDS011;68929;42.666;23.324;2023-07-08T11:50:43;5.78;;;5.13;;
79460;SDS011;68929;42.666;23.324;2023-07-08T11:53:58;6.78;;;4.38;;
79460;SDS011;68929;42.666;23.324;2023-07-08T11:59:36;5.18;;;4.68;;
79460;SDS011;68929;42.666;23.324;2023-07-08T12:02:14;5.40;;;4.75;;
79460;SDS011;68929;42.666;23.324;2023-07-08T12:04:53;4.93;;;4.50;;
79460;SDS011;68929;42.666;23.324;2023-07-08T12:07:31;7.63;;;4.75;;
79460;SDS011;68929;42.666;23.324;2023-07-08T12:10:06;4.85;;;4.35;;
79460;SDS011;68929;42.666;23.324;2023-07-08T12:13:11;5.18;;;4.43;;
79460;SDS011;68929;42.666;23.324;2023-07-08T12:15:44;6.18;;;4.63;;
79460;SDS011;68929;42.666;23.324;2023-07-08T12:18:31;5.38;;;4.88;;
79460;SDS011;68929;42.666;23.324;2023-07-08T12:21:08;4.45;;;4.05;;
79460;SDS011;68929;42.666;23.324;2023-07-08T12:26:00;4.82;;;4.43;;
79460;SDS011;68929;42.666;23.324;2023-07-08T12:28:30;5.75;;;4.50;;
79460;SDS011;68929;42.666;23.324;2023-07-08T12:31:01;6.38;;;4.88;;
79460;SDS011;68929;42.666;23.324;2023-07-08T12:36:30;6.53;;;4.72;;
79460;SDS011;68929;42.666;23.324;2023-07-08T12:39:07;5.68;;;5.18;;
79460;SDS011;68929;42.666;23.324;2023-07-08T12:41:36;6.38;;;4.65;;
79460;SDS011;68929;42.666;23.324;2023-07-08T12:44:04;5.68;;;4.90;;
79460;SDS011;68929;42.666;23.324;2023-07-08T12:47:01;7.35;;;4.60;;
79460;SDS011;68929;42.666;23.324;2023-07-08T12:49:35;7.07;;;4.90;;
79460;SDS011;68929;42.666;23.324;2023-07-08T12:52:01;5.53;;;4.80;;
79460;SDS011;68929;42.666;23.324;2023-07-08T12:54:27;4.45;;;4.05;;
79460;SDS011;68929;42.666;23.324;2023-07-08T12:56:53;5.78;;;3.97;;
79460;SDS011;68929;42.666;23.324;2023-07-08T12:59:20;7.78;;;4.18;;
79460;SDS011;68929;42.666;23.324;2023-07-08T13:01:47;4.85;;;4.07;;
79460;SDS011;68929;42.666;23.324;2023-07-08T13:04:14;6.03;;;4.00;;
79460;SDS011;68929;42.666;23.324;2023-07-08T13:06:40;4.90;;;3.95;;
79460;SDS011;68929;42.666;23.324;2023-07-08T13:12:13;4.65;;;3.97;;
79460;SDS011;68929;42.666;23.324;2023-07-08T13:14:43;4.38;;;3.60;;
79460;SDS011;68929;42.666;23.324;2023-07-08T13:17:16;5.20;;;3.80;;
79460;SDS011;68929;42.666;23.324;2023-07-08T13:19:42;6.10;;;3.50;;
79460;SDS011;68929;42.666;23.324;2023-07-08T13:22:14;3.63;;;3.33;;
79460;SDS011;68929;42.666;23.324;2023-07-08T13:24:44;7.22;;;4.03;;
79460;SDS011;68929;42.666;23.324;2023-07-08T13:27:22;3.90;;;3.50;;
79460;SDS011;68929;42.666;23.324;2023-07-08T13:30:10;4.07;;;3.60;;
79460;SDS011;68929;42.666;23.324;2023-07-08T13:32:48;5.22;;;4.30;;
79460;SDS011;68929;42.666;23.324;2023-07-08T13:38:21;4.55;;;3.85;;
79460;SDS011;68929;42.666;23.324;2023-07-08T13:41:09;5.13;;;3.80;;
79460;SDS011;68929;42.666;23.324;2023-07-08T13:43:43;4.80;;;3.60;;
79460;SDS011;68929;42.666;23.324;2023-07-08T13:49:07;5.57;;;3.97;;
79460;SDS011;68929;42.666;23.324;2023-07-08T13:51:36;6.82;;;4.30;;
79460;SDS011;68929;42.666;23.324;2023-07-08T13:54:21;5.07;;;3.65;;
79460;SDS011;68929;42.666;23.324;2023-07-08T13:56:49;6.85;;;4.30;;
79460;SDS011;68929;42.666;23.324;2023-07-08T13:59:24;5.13;;;3.97;;
79460;SDS011;68929;42.666;23.324;2023-07-08T14:01:59;9.18;;;4.30;;
79460;SDS011;68929;42.666;23.324;2023-07-08T14:04:27;5.60;;;3.80;;
79460;SDS011;68929;42.666;23.324;2023-07-08T14:09:31;6.43;;;4.00;;
79460;SDS011;68929;42.666;23.324;2023-07-08T14:12:25;4.40;;;4.00;;
79460;SDS011;68929;42.666;23.324;2023-07-08T14:14:51;4.88;;;4.35;;
79460;SDS011;68929;42.666;23.324;2023-07-08T14:17:21;7.38;;;4.35;;
79460;SDS011;68929;42.666;23.324;2023-07-08T14:20:00;7.15;;;3.95;;
79460;SDS011;68929;42.666;23.324;2023-07-08T14:23:02;6.32;;;4.13;;
79460;SDS011;68929;42.666;23.324;2023-07-08T14:25:37;4.43;;;4.00;;
79460;SDS011;68929;42.666;23.324;2023-07-08T14:28:02;6.60;;;4.38;;
79460;SDS011;68929;42.666;23.324;2023-07-08T14:30:31;8.73;;;4.00;;
79460;SDS011;68929;42.666;23.324;2023-07-08T14:32:57;7.40;;;4.40;;
79460;SDS011;68929;42.666;23.324;2023-07-08T14:35:27;6.95;;;3.90;;
79460;SDS011;68929;42.666;23.324;2023-07-08T14:37:55;5.43;;;3.90;;
79460;SDS011;68929;42.666;23.324;2023-07-08T14:40:32;7.53;;;4.28;;
79460;SDS011;68929;42.666;23.324;2023-07-08T14:45:53;7.65;;;4.10;;
79460;SDS011;68929;42.666;23.324;2023-07-08T14:48:21;6.60;;;4.35;;
79460;SDS011;68929;42.666;23.324;2023-07-08T14:50:51;4.78;;;4.28;;
79460;SDS011;68929;42.666;23.324;2023-07-08T14:53:37;7.90;;;4.65;;
79460;SDS011;68929;42.666;23.324;2023-07-08T14:56:08;6.72;;;3.92;;
79460;SDS011;68929;42.666;23.324;2023-07-08T14:58:42;6.47;;;3.92;;
79460;SDS011;68929;42.666;23.324;2023-07-08T15:01:29;4.93;;;4.00;;
79460;SDS011;68929;42.666;23.324;2023-07-08T15:04:08;6.95;;;4.50;;
79460;SDS011;68929;42.666;23.324;2023-07-08T15:06:38;6.55;;;4.38;;
79460;SDS011;68929;42.666;23.324;2023-07-08T15:09:07;4.45;;;4.03;;
79460;SDS011;68929;42.666;23.324;2023-07-08T15:11:47;9.05;;;4.68;;
79460;SDS011;68929;42.666;23.324;2023-07-08T15:14:21;7.03;;;4.18;;
79460;SDS011;68929;42.666;23.324;2023-07-08T15:16:51;9.95;;;4.28;;
79460;SDS011;68929;42.666;23.324;2023-07-08T15:19:17;7.25;;;5.03;;
79460;SDS011;68929;42.666;23.324;2023-07-08T15:22:03;8.10;;;4.25;;
79460;SDS011;68929;42.666;23.324;2023-07-08T15:24:35;7.07;;;4.43;;
79460;SDS011;68929;42.666;23.324;2023-07-08T15:27:19;4.75;;;4.32;;
79460;SDS011;68929;42.666;23.324;2023-07-08T15:29:47;8.02;;;4.35;;
79460;SDS011;68929;42.666;23.324;2023-07-08T15:32:26;6.72;;;4.70;;
79460;SDS011;68929;42.666;23.324;2023-07-08T15:34:51;8.60;;;4.32;;
79460;SDS011;68929;42.666;23.324;2023-07-08T15:37:18;7.32;;;4.90;;
79460;SDS011;68929;42.666;23.324;2023-07-08T15:39:44;5.57;;;4.55;;
79460;SDS011;68929;42.666;23.324;2023-07-08T15:42:12;4.72;;;4.22;;
79460;SDS011;68929;42.666;23.324;2023-07-08T15:44:38;5.70;;;4.05;;
79460;SDS011;68929;42.666;23.324;2023-07-08T15:47:11;4.45;;;3.97;;
79460;SDS011;68929;42.666;23.324;2023-07-08T15:49:38;8.50;;;4.70;;
79460;SDS011;68929;42.666;23.324;2023-07-08T15:52:20;10.57;;;4.80;;
79460;SDS011;68929;42.666;23.324;2023-07-08T15:54:47;7.38;;;4.88;;
79460;SDS011;68929;42.666;23.324;2023-07-08T15:57:13;8.98;;;5.70;;
79460;SDS011;68929;42.666;23.324;2023-07-08T15:59:38;6.00;;;4.72;;